Florence, MS (39073)

4:13 AM CDT on July 29, 2016 (GMT -0500)
Florence | | Change Station

Elev 367 ft 32.18 °N, 90.11 °W | Updated 3 minutes ago

Clear
Clear
73.4 °F
Feels Like 73.4 °F
N
0.0
Wind Variable Wind from SSW

Today
High -- | Low -- °F
--% Chance of Precip.
Yesterday
High -- | Low -- °F
Precip. -- in
Pressure 30.00 in
Visibility 10.0 miles
Clouds Clear
Dew Point 73 °F
Humidity 98%
Rainfall 0.00 in
Snow Depth Not available.
6:13 AM 7:59 PM
Waning Crescent, 23% visible
METAR KJAN 290854Z AUTO 16004KT 10SM CLR 23/22 A3001 RMK AO2 SLP157 T02280217 58001
Pressure 30.00 in
Visibility 10.0 miles
Clouds Clear
Dew Point 73 °F
Humidity 98%
Rainfall 0.00 in
Snow Depth Not available.
6:13 AM 7:59 PM
Waning Crescent, 23% visible
METAR KJAN 290854Z AUTO 16004KT 10SM CLR 23/22 A3001 RMK AO2 SLP157 T02280217 58001

10-Day Weather Forecast

Almanac

Astronomy

Jul. 29, 2016 Rise Set
Actual Time
Civil Twilight
Nautical Twilight
Astronomical Twilight
Moon
Length of Visible Light
Length of Day
Tomorrow will be .
, % of the Moon is Illuminated

Today's Extremes

State Highs State Lows

Community

WunderPhotos

Upload Photos

1,928,300 photos uploaded!

WunderBlog® & News

Nearby

Air Quality

  Air Quality AQ Index Pollutant
Not available.

Snow Depth

Station Depth Elevation

Earthquake Activity

City Distance Mag. Time & Date
Minimum magnitude displayed is 2.5.

Coastal Water Temperatures

Place Temperature

Stations

Nearby Weather Stations

Station Location Temp. Windchill Dew Point Humidity Wind Precip. Elev Updated Type
                   

Watches & Warnings

There are currently no watches in effect.